Time;durP1;ratioP1;P1;durP2;ratioP2;P2;SDS_P1;SDS_P2;PMS_P1;PMS_P2;Temp;Humidity;BMP_temperature;BMP_pressure;BME280_temperature;BME280_humidity;BME280_pressure;Samples;Min_cycle;Max_cycle;Signal;HPM_P1;HPM_P2
2023/12/13 00:00:42;;;;;;;1.80;0.93;;;;;;;-145.69;67.70;52353.28;4935766;29;20559;-80
2023/12/13 00:03:09;;;;;;;6.03;1.00;;;;;;;-145.69;67.88;52333.47;4936054;29;20207;-80
2023/12/13 00:05:35;;;;;;;5.83;0.70;;;;;;;-145.69;67.33;52305.75;4935923;29;20203;-80
2023/12/13 00:08:02;;;;;;;1.83;0.97;;;;;;;-145.69;67.18;52309.72;4935864;29;20243;-80
2023/12/13 00:10:28;;;;;;;1.60;0.80;;;;;;;-145.69;66.25;52303.78;4935378;29;20215;-80
2023/12/13 00:12:54;;;;;;;2.60;0.80;;;;;;;-145.69;66.91;52297.84;4936217;29;20212;-81
2023/12/13 00:15:21;;;;;;;3.20;0.70;;;;;;;-145.69;67.55;52349.31;4935889;29;20207;-81
2023/12/13 00:17:49;;;;;;;4.40;0.80;;;;;;;-145.69;67.39;52297.84;4935752;29;20204;-80
2023/12/13 00:20:16;;;;;;;0.97;0.80;;;;;;;-145.69;67.51;52309.72;4935740;29;20242;-80
2023/12/13 00:22:42;;;;;;;2.20;0.60;;;;;;;-145.69;67.90;52297.84;4935832;29;20677;-80
2023/12/13 00:25:09;;;;;;;1.27;0.67;;;;;;;-145.69;68.31;52307.75;4935554;29;20226;-80
2023/12/13 00:27:36;;;;;;;2.67;0.80;;;;;;;-145.69;68.20;52333.47;4935409;29;20575;-81
2023/12/13 00:30:03;;;;;;;4.80;0.90;;;;;;;-145.69;67.95;52317.66;4932516;29;20662;-81
2023/12/13 00:32:30;;;;;;;1.73;0.80;;;;;;;-145.69;67.70;52291.91;4935794;29;20207;-80
2023/12/13 00:34:59;;;;;;;5.53;0.90;;;;;;;-145.69;67.38;52325.56;4931395;29;20651;-81
2023/12/13 00:37:26;;;;;;;0.70;0.70;;;;;;;-145.69;66.63;52333.47;4935487;29;20208;-80
2023/12/13 00:39:52;;;;;;;3.23;0.97;;;;;;;-145.69;66.33;52353.28;4935515;29;20211;-80
2023/12/13 00:42:18;;;;;;;2.07;0.63;;;;;;;-145.69;66.16;52317.66;4935728;29;20607;-80
2023/12/13 00:44:45;;;;;;;2.30;0.80;;;;;;;-145.69;66.37;52289.91;4934526;29;20282;-81
2023/12/13 00:47:12;;;;;;;4.07;0.80;;;;;;;-145.69;66.81;52305.75;4935473;29;20207;-79
2023/12/13 00:49:38;;;;;;;2.97;1.00;;;;;;;-145.69;67.13;52311.69;4935309;29;20207;-81
2023/12/13 00:52:06;;;;;;;5.83;0.80;;;;;;;-145.69;66.48;52278.03;4939047;29;20207;-79
2023/12/13 00:54:33;;;;;;;0.67;0.50;;;;;;;-145.69;66.38;52309.72;4939222;29;20210;-81
2023/12/13 00:56:59;;;;;;;1.10;0.70;;;;;;;-145.69;66.37;52282.00;4939483;29;20658;-81
2023/12/13 00:59:25;;;;;;;1.63;0.70;;;;;;;-145.69;66.68;52303.78;4939298;29;20195;-80
2023/12/13 01:01:52;;;;;;;2.63;0.93;;;;;;;-145.69;66.48;52325.56;4939335;29;20564;-80
2023/12/13 01:04:18;;;;;;;3.90;1.03;;;;;;;-145.69;66.03;52313.69;4938893;29;20725;-80
2023/12/13 01:06:45;;;;;;;3.60;0.83;;;;;;;-145.69;65.83;52321.59;4939034;29;20647;-80
2023/12/13 01:09:13;;;;;;;1.30;0.90;;;;;;;-145.69;66.03;52305.75;4938957;29;20242;-80
2023/12/13 01:11:39;;;;;;;1.47;0.70;;;;;;;-145.69;66.79;52329.53;4938932;29;20210;-80
2023/12/13 01:14:06;;;;;;;1.80;0.70;;;;;;;-145.69;67.10;52343.38;4938315;29;20457;-80
2023/12/13 01:16:33;;;;;;;1.23;0.80;;;;;;;-145.69;67.04;52337.44;4938242;29;20474;-80
2023/12/13 01:19:00;;;;;;;2.10;0.80;;;;;;;-145.69;67.60;52305.75;4939285;29;20203;-81
2023/12/13 01:21:28;;;;;;;1.47;0.60;;;;;;;-145.69;67.78;52329.53;4938791;29;20206;-80
2023/12/13 01:23:55;;;;;;;0.70;0.70;;;;;;;-145.69;67.80;52297.84;4938882;29;20646;-80
2023/12/13 01:26:23;;;;;;;1.10;0.60;;;;;;;-145.69;67.66;52333.47;4938851;29;20208;-81
2023/12/13 01:28:49;;;;;;;2.30;0.83;;;;;;;-145.69;67.75;52301.81;4938769;29;20203;-81
2023/12/13 01:31:16;;;;;;;3.97;0.83;;;;;;;-145.69;67.86;52333.47;4938523;29;20238;-81
2023/12/13 01:33:42;;;;;;;0.97;0.70;;;;;;;-145.69;67.75;52333.47;4938937;29;20207;-80
2023/12/13 01:36:09;;;;;;;5.17;0.80;;;;;;;-145.69;68.00;52315.66;4938932;29;20207;-80
2023/12/13 01:38:36;;;;;;;0.57;0.57;;;;;;;-145.69;67.28;52285.97;4938178;29;20203;-81
2023/12/13 01:41:03;;;;;;;1.23;0.67;;;;;;;-145.69;67.67;52309.72;4938456;29;20245;-80
2023/12/13 01:43:31;;;;;;;0.80;0.80;;;;;;;-145.69;67.40;52317.66;4938380;29;20738;-80
2023/12/13 01:45:58;;;;;;;1.30;0.70;;;;;;;-145.69;67.25;52313.69;4938978;29;20235;-81
2023/12/13 01:48:26;;;;;;;1.83;0.83;;;;;;;-145.69;67.93;52313.69;4938540;29;20229;-80
2023/12/13 01:50:54;;;;;;;3.50;0.80;;;;;;;-145.69;67.53;52295.84;4938482;29;20591;-81
2023/12/13 01:53:22;;;;;;;2.23;0.60;;;;;;;-145.69;67.61;52325.56;4938315;29;20214;-80
2023/12/13 01:55:48;;;;;;;1.93;0.70;;;;;;;-145.69;67.30;52291.91;4938341;29;20298;-80
2023/12/13 01:58:15;;;;;;;1.40;0.70;;;;;;;-145.69;67.66;52315.66;4938089;29;20233;-80
2023/12/13 02:00:44;;;;;;;1.10;0.70;;;;;;;-145.69;67.24;52289.91;4938360;29;20207;-81
2023/12/13 02:03:12;;;;;;;0.70;0.70;;;;;;;-145.69;67.77;52315.66;4937343;29;20290;-81
2023/12/13 02:05:38;;;;;;;0.73;0.60;;;;;;;-145.69;67.18;52309.72;4937842;29;20690;-80
2023/12/13 02:08:05;;;;;;;1.87;0.90;;;;;;;-145.69;67.19;52297.84;4937752;29;20235;-80
2023/12/13 02:10:31;;;;;;;2.93;1.00;;;;;;;-145.69;67.22;52321.59;4938006;29;20208;-81
2023/12/13 02:12:58;;;;;;;0.50;0.50;;;;;;;-145.69;67.30;52291.91;4938135;29;20214;-81
2023/12/13 02:15:24;;;;;;;6.53;0.70;;;;;;;-145.69;67.59;52313.69;4923217;29;20213;-80
2023/12/13 02:17:53;;;;;;;1.23;0.63;;;;;;;-145.69;67.80;52299.81;4937011;29;20208;-81
2023/12/13 02:20:19;;;;;;;0.73;0.67;;;;;;;-145.69;67.83;52341.41;4938037;29;20214;-81
2023/12/13 02:22:47;;;;;;;0.67;0.60;;;;;;;-145.69;68.27;52274.06;4937753;29;20210;-81
2023/12/13 02:25:17;;;;;;;0.60;0.60;;;;;;;-145.69;68.45;52305.75;4937621;29;20235;-81
2023/12/13 02:27:44;;;;;;;0.50;0.50;;;;;;;-145.69;68.18;52317.66;4934098;29;20290;-81
2023/12/13 02:30:11;;;;;;;4.43;0.70;;;;;;;-145.69;68.15;52331.50;4937403;29;20663;-80
2023/12/13 02:32:38;;;;;;;2.33;0.67;;;;;;;-145.69;67.50;52289.91;4937673;29;20227;-80
2023/12/13 02:35:05;;;;;;;1.33;0.60;;;;;;;-145.69;68.15;52323.59;4937459;29;20211;-80
2023/12/13 02:37:32;;;;;;;0.60;0.60;;;;;;;-145.69;68.00;52282.00;4937114;29;20213;-81
2023/12/13 02:40:03;;;;;;;1.70;0.67;;;;;;;-145.69;67.67;52313.69;4936744;29;20203;-81
2023/12/13 02:42:29;;;;;;;1.30;0.80;;;;;;;-145.69;67.35;52315.66;4937649;29;20199;-81
2023/12/13 02:44:56;;;;;;;0.60;0.60;;;;;;;-145.69;68.02;52311.69;4937333;29;20311;-81
2023/12/13 02:47:25;;;;;;;0.50;0.50;;;;;;;-145.69;68.16;52299.81;4936224;29;20456;-80
2023/12/13 02:49:51;;;;;;;1.23;0.70;;;;;;;-145.69;68.02;52341.41;4937519;29;20671;-80
2023/12/13 02:52:18;;;;;;;0.50;0.50;;;;;;;-145.69;68.54;52335.47;4936388;29;20207;-81
2023/12/13 02:54:45;;;;;;;0.60;0.60;;;;;;;-145.69;68.05;52301.81;4937322;29;20215;-80
2023/12/13 02:57:13;;;;;;;0.60;0.60;;;;;;;-145.69;67.95;52297.84;4937129;29;20196;-81
2023/12/13 02:59:39;;;;;;;1.73;0.60;;;;;;;-145.69;67.86;52305.75;4937349;29;20203;-81
2023/12/13 03:02:06;;;;;;;1.23;0.70;;;;;;;-145.69;67.55;52345.38;4937138;29;20211;-81
2023/12/13 03:04:33;;;;;;;0.50;0.50;;;;;;;-145.69;67.95;52313.69;4936749;29;20698;-81
2023/12/13 03:07:00;;;;;;;1.43;0.60;;;;;;;-145.69;68.10;52321.59;4936653;29;20207;-81
2023/12/13 03:09:27;;;;;;;5.90;0.67;;;;;;;-145.69;66.73;52299.81;4936310;29;20294;-81
2023/12/13 03:11:53;;;;;;;3.63;0.60;;;;;;;-145.69;67.39;52303.78;4937060;29;20208;-81
2023/12/13 03:14:21;;;;;;;0.60;0.53;;;;;;;-145.69;67.75;52289.91;4936814;29;20208;-81
2023/12/13 03:16:47;;;;;;;0.63;0.60;;;;;;;-145.69;67.56;52325.56;4936898;29;20214;-81
2023/12/13 03:19:14;;;;;;;0.57;0.57;;;;;;;-145.69;67.67;52299.81;4936588;29;20204;-82
2023/12/13 03:21:40;;;;;;;26.23;1.00;;;;;;;-145.69;67.41;52315.66;4936405;29;20207;-80
2023/12/13 03:24:07;;;;;;;0.83;0.70;;;;;;;-145.69;66.74;52309.72;4937019;29;20199;-80
2023/12/13 03:26:33;;;;;;;4.23;0.63;;;;;;;-145.69;67.03;52317.66;4936807;29;20231;-81
2023/12/13 03:29:00;;;;;;;1.90;0.50;;;;;;;-145.69;67.12;52307.75;4936370;29;20208;-80
2023/12/13 03:31:28;;;;;;;0.50;0.50;;;;;;;-145.69;66.99;52333.47;4936515;29;20267;-80
2023/12/13 03:33:55;;;;;;;1.10;0.60;;;;;;;-145.69;67.43;52278.03;4936583;29;20250;-79
2023/12/13 03:36:22;;;;;;;0.77;0.50;;;;;;;-145.69;66.95;52311.69;4936456;29;20615;-79
2023/12/13 03:38:48;;;;;;;0.70;0.70;;;;;;;-145.69;67.01;52317.66;4936346;29;20200;-81
2023/12/13 03:41:15;;;;;;;0.60;0.60;;;;;;;-145.69;67.31;52333.47;4936689;29;20215;-80
2023/12/13 03:43:41;;;;;;;0.60;0.60;;;;;;;-145.69;66.99;52319.63;4936423;29;20206;-80
2023/12/13 03:46:08;;;;;;;7.67;0.80;;;;;;;-145.69;66.66;52335.47;4936158;29;20253;-81
2023/12/13 03:48:36;;;;;;;0.73;0.73;;;;;;;-145.69;66.60;52289.91;4936104;29;20559;-80
2023/12/13 03:51:03;;;;;;;0.60;0.60;;;;;;;-145.69;65.50;52309.72;4936461;29;20218;-80
2023/12/13 03:53:30;;;;;;;1.23;0.83;;;;;;;-145.69;65.87;52305.75;4936501;29;20212;-80
2023/12/13 03:55:56;;;;;;;0.90;0.70;;;;;;;-145.69;66.82;52337.44;4935711;29;20211;-80
2023/12/13 03:58:23;;;;;;;0.70;0.70;;;;;;;-145.69;67.12;52337.44;4936099;29;20206;-80
2023/12/13 04:00:49;;;;;;;0.80;0.80;;;;;;;-145.69;67.10;52291.91;4936205;29;20207;-81
2023/12/13 04:03:16;;;;;;;1.37;0.60;;;;;;;-145.69;67.03;52323.59;4936007;29;20210;-80
2023/12/13 04:05:44;;;;;;;0.80;0.67;;;;;;;-145.69;67.33;52317.66;4935926;29;20709;-80
2023/12/13 04:08:10;;;;;;;1.00;0.70;;;;;;;-145.69;66.94;52305.75;4935621;29;20246;-80
2023/12/13 04:10:37;;;;;;;3.20;0.70;;;;;;;-145.69;66.64;52337.44;4935746;29;20214;-80
2023/12/13 04:13:03;;;;;;;1.23;0.70;;;;;;;-145.69;66.85;52325.56;4936178;29;20297;-80
2023/12/13 04:15:30;;;;;;;0.83;0.70;;;;;;;-145.69;67.10;52297.84;4935996;29;20207;-79
2023/12/13 04:17:56;;;;;;;0.93;0.70;;;;;;;-145.69;67.23;52325.56;4936090;29;20211;-80
2023/12/13 04:20:23;;;;;;;0.83;0.80;;;;;;;-145.69;67.20;52285.97;4935370;29;20200;-80
2023/12/13 04:22:51;;;;;;;4.23;0.57;;;;;;;-145.69;67.77;52278.03;4935902;29;20207;-80
2023/12/13 04:25:17;;;;;;;2.33;0.90;;;;;;;-145.69;67.86;52325.56;4935100;29;20231;-79
2023/12/13 04:27:47;;;;;;;2.60;1.10;;;;;;;-145.69;68.19;52289.91;4935772;29;20203;-80
2023/12/13 04:30:14;;;;;;;6.77;0.63;;;;;;;-145.69;67.26;52315.66;4935284;29;20195;-80
2023/12/13 04:32:41;;;;;;;1.80;0.90;;;;;;;-145.69;67.22;52301.81;4935733;29;20274;-80
2023/12/13 04:35:08;;;;;;;2.10;0.70;;;;;;;-145.69;66.99;52317.66;4935378;29;20681;-80
2023/12/13 04:37:35;;;;;;;3.80;1.10;;;;;;;-145.69;66.94;52323.59;4924555;29;20212;-81
2023/12/13 04:40:06;;;;;;;2.40;1.07;;;;;;;-145.69;67.16;52305.75;4931672;29;20206;-80
2023/12/13 04:42:38;;;;;;;6.07;1.03;;;;;;;-145.69;67.34;52345.38;4934881;29;20706;-80
2023/12/13 04:45:10;;;;;;;1.17;0.83;;;;;;;-145.69;67.00;52315.66;4931188;29;20219;-80
2023/12/13 04:47:38;;;;;;;1.03;0.83;;;;;;;-145.69;67.08;52327.53;4935543;29;20238;-80
2023/12/13 04:50:06;;;;;;;4.73;1.23;;;;;;;-145.69;67.05;52305.75;4935070;29;20234;-80
2023/12/13 04:52:32;;;;;;;3.80;0.90;;;;;;;-145.69;67.24;52313.69;4935633;29;20204;-80
2023/12/13 04:54:59;;;;;;;3.07;0.97;;;;;;;-145.69;67.20;52331.50;4935344;29;20203;-80
2023/12/13 04:57:27;;;;;;;1.27;0.90;;;;;;;-145.69;66.85;52349.31;4932661;29;20207;-80
2023/12/13 04:59:56;;;;;;;1.03;0.93;;;;;;;-145.69;67.30;52333.47;4935272;29;20631;-80
2023/12/13 05:02:26;;;;;;;3.35;0.80;;;;;;;-145.69;68.48;52333.47;4934204;29;20540;-80
2023/12/13 05:04:55;;;;;;;5.40;1.10;;;;;;;-145.69;68.05;52293.88;4935451;29;20203;-80
2023/12/13 05:07:33;;;;;;;4.47;1.20;;;;;;;-145.69;67.15;52285.97;4935290;29;20210;-80
2023/12/13 05:10:00;;;;;;;3.27;1.23;;;;;;;-145.69;67.63;52333.47;4934904;29;20211;-80
2023/12/13 05:12:31;;;;;;;5.83;1.57;;;;;;;-145.69;67.31;52291.91;4935073;29;20203;-80
2023/12/13 05:14:57;;;;;;;2.70;0.97;;;;;;;-145.69;67.40;52289.91;4935211;29;20733;-80
2023/12/13 05:17:24;;;;;;;3.33;0.90;;;;;;;-145.69;67.48;52303.78;4935399;29;20203;-80
2023/12/13 05:19:50;;;;;;;3.67;1.27;;;;;;;-145.69;67.05;52339.44;4934831;29;20204;-79
2023/12/13 05:22:17;;;;;;;3.10;1.03;;;;;;;-145.69;66.78;52317.66;4934944;29;20230;-79
2023/12/13 05:24:43;;;;;;;1.73;0.93;;;;;;;-145.69;66.61;52357.25;4935232;29;20214;-79
2023/12/13 05:27:13;;;;;;;2.80;1.30;;;;;;;-145.69;66.66;52301.81;4935189;29;20231;-80
2023/12/13 05:29:43;;;;;;;6.20;1.20;;;;;;;-145.69;66.49;52291.91;4935003;29;20207;-79
2023/12/13 05:32:10;;;;;;;5.10;1.27;;;;;;;-145.69;67.35;52329.53;4935393;29;20207;-80
2023/12/13 05:34:38;;;;;;;3.97;1.53;;;;;;;-145.69;67.64;52329.53;4935351;29;20290;-79
2023/12/13 05:37:05;;;;;;;3.57;1.10;;;;;;;-145.69;67.30;52349.31;4931573;29;20584;-79
2023/12/13 05:39:32;;;;;;;2.23;1.00;;;;;;;-145.69;67.23;52321.59;4929617;29;20259;-80
2023/12/13 05:41:58;;;;;;;3.93;1.10;;;;;;;-145.69;67.30;52323.59;4938099;29;20208;-79
2023/12/13 05:44:25;;;;;;;7.77;1.03;;;;;;;-145.69;66.56;52301.81;4938187;29;20604;-79
2023/12/13 05:46:53;;;;;;;3.70;0.90;;;;;;;-145.69;66.78;52317.66;4938272;29;20231;-79
2023/12/13 05:49:19;;;;;;;4.70;1.17;;;;;;;-145.69;66.88;52315.66;4938263;29;20227;-80
2023/12/13 05:51:49;;;;;;;3.50;1.30;;;;;;;-145.69;66.85;52311.69;4938430;29;20216;-80
2023/12/13 05:54:17;;;;;;;23.00;8.13;;;;;;;-145.69;66.83;52297.84;4938264;29;20234;-79
2023/12/13 05:56:44;;;;;;;15.17;4.80;;;;;;;-145.69;66.85;52307.75;4938473;29;20212;-79
2023/12/13 05:59:11;;;;;;;23.10;7.97;;;;;;;-145.69;67.42;52317.66;4938261;29;20196;-79
2023/12/13 06:01:40;;;;;;;8.17;4.30;;;;;;;-145.69;67.58;52305.75;4938315;29;20207;-80
2023/12/13 06:04:07;;;;;;;7.17;2.93;;;;;;;-145.69;67.23;52353.28;4937388;29;20642;-79
2023/12/13 06:06:34;;;;;;;3.87;1.47;;;;;;;-145.69;66.89;52280.00;4938068;29;20239;-80
2023/12/13 06:09:02;;;;;;;5.80;1.50;;;;;;;-145.69;66.94;52323.59;4937817;29;20578;-80
2023/12/13 06:11:28;;;;;;;4.83;1.13;;;;;;;-145.69;67.16;52311.69;4938204;29;20203;-80
2023/12/13 06:13:55;;;;;;;5.97;1.20;;;;;;;-145.69;67.03;52345.38;4937829;29;20207;-81
2023/12/13 06:16:24;;;;;;;6.30;1.87;;;;;;;-145.69;66.48;52307.75;4937949;29;20207;-81
2023/12/13 06:18:51;;;;;;;1.70;1.07;;;;;;;-145.69;67.50;52289.91;4937965;29;20199;-81
2023/12/13 06:21:19;;;;;;;3.87;1.20;;;;;;;-145.69;66.96;52313.69;4937689;29;20207;-81
2023/12/13 06:23:45;;;;;;;3.97;0.87;;;;;;;-145.69;67.20;52317.66;4937774;29;20727;-81
2023/12/13 06:26:13;;;;;;;1.23;0.97;;;;;;;-145.69;67.46;52311.69;4937725;29;20323;-81
2023/12/13 06:28:40;;;;;;;9.23;1.37;;;;;;;-145.69;66.94;52309.72;4937483;29;20663;-81
2023/12/13 06:31:07;;;;;;;4.40;2.03;;;;;;;-145.69;67.56;52301.81;4934095;29;20242;-81
2023/12/13 06:33:33;;;;;;;5.33;1.10;;;;;;;-145.69;67.95;52343.38;4937691;29;20203;-80
2023/12/13 06:36:00;;;;;;;4.30;1.17;;;;;;;-145.69;67.55;52317.66;4937608;29;20210;-81
2023/12/13 06:38:28;;;;;;;3.90;1.13;;;;;;;-145.69;67.64;52303.78;4937654;29;20208;-81
2023/12/13 06:40:54;;;;;;;3.30;1.77;;;;;;;-145.69;67.43;52327.53;4937008;29;20206;-80
2023/12/13 06:43:21;;;;;;;2.97;1.30;;;;;;;-145.69;67.50;52313.69;4935612;29;20204;-81
2023/12/13 06:45:47;;;;;;;5.40;1.50;;;;;;;-145.69;67.31;52335.47;4934527;29;20663;-81
2023/12/13 06:48:14;;;;;;;6.23;1.30;;;;;;;-145.69;67.05;52319.63;4937146;29;20211;-81
2023/12/13 06:50:44;;;;;;;2.73;1.20;;;;;;;-145.69;66.84;52321.59;4937003;29;20204;-81
2023/12/13 06:53:10;;;;;;;3.43;1.30;;;;;;;-145.69;67.10;52323.59;4936936;29;20230;-81
2023/12/13 06:55:38;;;;;;;2.77;1.40;;;;;;;-145.69;67.62;52297.84;4937285;29;20290;-81
2023/12/13 06:58:06;;;;;;;1.73;1.30;;;;;;;-145.69;67.15;52315.66;4937109;29;20294;-81
2023/12/13 07:00:32;;;;;;;2.33;1.47;;;;;;;-145.69;67.16;52371.13;4934650;29;20615;-81
2023/12/13 07:02:59;;;;;;;5.07;1.20;;;;;;;-145.69;67.12;52278.03;4937456;29;20207;-81
2023/12/13 07:05:25;;;;;;;2.30;1.43;;;;;;;-145.69;66.98;52293.88;4937091;29;20231;-81
2023/12/13 07:07:52;;;;;;;4.20;1.50;;;;;;;-145.69;67.37;52331.50;4936824;29;20250;-82
2023/12/13 07:10:21;;;;;;;2.40;1.10;;;;;;;-145.69;67.28;52303.78;4937017;29;20686;-81
2023/12/13 07:12:49;;;;;;;5.00;1.40;;;;;;;-145.69;67.66;52317.66;4936776;29;20298;-81
2023/12/13 07:15:21;;;;;;;2.83;1.20;;;;;;;-145.69;67.63;52301.81;4937027;29;20302;-81
2023/12/13 07:17:49;;;;;;;4.27;0.80;;;;;;;-145.69;67.28;52321.59;4937149;29;20211;-81
2023/12/13 07:20:21;;;;;;;2.77;1.37;;;;;;;-145.69;67.72;52333.47;4936124;29;20204;-81
2023/12/13 07:22:50;;;;;;;2.53;1.50;;;;;;;-145.69;67.49;52333.47;4936523;29;20208;-81
2023/12/13 07:25:17;;;;;;;4.23;1.47;;;;;;;-145.69;67.28;52309.72;4936659;29;20211;-81
2023/12/13 07:27:43;;;;;;;1.93;1.13;;;;;;;-145.69;66.93;52321.59;4936304;29;20694;-81
2023/12/13 07:30:12;;;;;;;2.30;1.17;;;;;;;-145.69;67.25;52321.59;4932499;29;20202;-80
2023/12/13 07:32:40;;;;;;;3.77;1.53;;;;;;;-145.69;67.29;52285.97;4936786;29;20259;-80
2023/12/13 07:35:07;;;;;;;3.13;1.10;;;;;;;-145.69;67.69;52297.84;4936656;29;20410;-81
2023/12/13 07:37:35;;;;;;;4.53;1.47;;;;;;;-145.69;67.53;52357.25;4936684;29;20215;-81
2023/12/13 07:40:02;;;;;;;3.57;1.47;;;;;;;-145.69;66.76;52333.47;4936141;29;20202;-82
2023/12/13 07:42:28;;;;;;;4.50;1.70;;;;;;;-145.69;66.80;52339.44;4922039;29;20275;-80
2023/12/13 07:44:55;;;;;;;2.87;1.30;;;;;;;-145.69;67.15;52303.78;4917625;29;20204;-81
2023/12/13 07:47:23;;;;;;;8.47;1.83;;;;;;;-145.69;66.79;52317.66;4917144;29;20335;-80
2023/12/13 07:49:53;;;;;;;3.70;1.30;;;;;;;-145.69;66.37;52234.47;4922942;29;20196;-80
2023/12/13 07:52:19;;;;;;;2.53;1.03;;;;;;;-145.69;66.32;52337.44;4936451;29;20291;-81
2023/12/13 07:54:48;;;;;;;3.43;1.23;;;;;;;-145.69;66.95;52337.44;4936513;29;20210;-81
2023/12/13 07:57:17;;;;;;;4.67;1.20;;;;;;;-145.69;67.28;52335.47;4936076;29;20211;-80
2023/12/13 07:59:45;;;;;;;2.60;1.00;;;;;;;-145.69;66.89;52325.56;4934388;29;20694;-80
2023/12/13 08:02:12;;;;;;;7.37;2.77;;;;;;;-145.69;67.40;52297.84;4936116;29;20212;-81
2023/12/13 08:04:42;;;;;;;6.27;1.77;;;;;;;-145.69;67.58;52299.81;4921893;29;20295;-81
2023/12/13 08:07:09;;;;;;;4.10;1.37;;;;;;;-145.69;67.36;52289.91;4917113;29;20291;-81
2023/12/13 08:09:38;;;;;;;5.60;1.70;;;;;;;-145.69;67.72;52341.41;4929215;29;20590;-81
2023/12/13 08:12:05;;;;;;;4.40;1.50;;;;;;;-145.69;67.26;52309.72;4935693;29;20583;-80
2023/12/13 08:14:33;;;;;;;5.07;1.63;;;;;;;-145.69;67.38;52305.75;4936021;29;20223;-80
2023/12/13 08:17:02;;;;;;;3.77;1.30;;;;;;;-145.69;67.11;52325.56;4936043;29;20207;-81
2023/12/13 08:19:31;;;;;;;2.40;1.27;;;;;;;-145.69;67.69;52357.25;4935596;29;20203;-81
2023/12/13 08:22:02;;;;;;;3.17;1.10;;;;;;;-145.69;67.31;52301.81;4936027;29;20212;-80
2023/12/13 08:24:30;;;;;;;2.80;0.97;;;;;;;-145.69;67.55;52327.53;4935915;29;20204;-81
2023/12/13 08:26:59;;;;;;;3.17;1.00;;;;;;;-145.69;67.46;52297.84;4935439;29;20227;-79
2023/12/13 08:29:26;;;;;;;4.57;1.40;;;;;;;-145.69;67.90;52282.00;4931349;29;20210;-81
2023/12/13 08:31:53;;;;;;;3.27;1.30;;;;;;;-145.69;67.71;52280.00;4934107;29;20196;-81
2023/12/13 08:34:19;;;;;;;1.87;1.30;;;;;;;-145.69;67.16;52301.81;4933778;29;20204;-81
2023/12/13 08:36:51;;;;;;;1.20;1.10;;;;;;;-145.69;67.80;52305.75;4920491;29;20710;-81
2023/12/13 08:39:21;;;;;;;2.17;1.10;;;;;;;-145.69;67.48;52270.13;4926226;29;20206;-81
2023/12/13 08:41:53;;;;;;;2.80;1.03;;;;;;;-145.69;67.59;52329.53;4935369;29;20214;-81
2023/12/13 08:44:19;;;;;;;4.33;1.03;;;;;;;-145.69;67.69;52299.81;4935473;29;20207;-81
2023/12/13 08:46:47;;;;;;;6.23;1.43;;;;;;;-145.69;67.33;52329.53;4935579;29;20223;-80
2023/12/13 08:49:13;;;;;;;4.13;1.00;;;;;;;-145.69;67.40;52301.81;4935356;29;20250;-80
2023/12/13 08:51:40;;;;;;;3.20;1.20;;;;;;;-145.69;67.38;52280.00;4935509;29;20200;-81
2023/12/13 08:54:08;;;;;;;2.50;1.00;;;;;;;-145.69;67.34;52317.66;4935468;29;20258;-81
2023/12/13 08:56:36;;;;;;;3.10;1.15;;;;;;;-145.69;68.05;52315.66;4935148;29;20458;-80
2023/12/13 08:59:05;;;;;;;2.23;1.03;;;;;;;-145.69;67.47;52297.84;4934676;29;20204;-80
2023/12/13 09:01:32;;;;;;;5.70;1.20;;;;;;;-145.69;67.57;52321.59;4933955;29;20551;-80
2023/12/13 09:03:59;;;;;;;2.30;1.20;;;;;;;-145.69;68.21;52285.97;4935006;29;20239;-81
2023/12/13 09:06:25;;;;;;;3.67;1.00;;;;;;;-145.69;67.57;52283.97;4935463;29;20234;-80
2023/12/13 09:08:54;;;;;;;3.92;1.38;;;;;;;-145.69;67.04;52315.66;4934271;29;20488;-80
2023/12/13 09:11:21;;;;;;;3.10;1.30;;;;;;;-145.69;68.13;52327.53;4935812;29;20235;-79
2023/12/13 09:13:49;;;;;;;2.80;1.40;;;;;;;-145.69;67.62;52297.84;4938839;29;20207;-80
2023/12/13 09:16:16;;;;;;;1.53;0.87;;;;;;;-145.69;67.77;52329.53;4938507;29;20211;-80
2023/12/13 09:18:44;;;;;;;1.80;0.93;;;;;;;-145.69;67.25;52299.81;4939098;29;20208;-80
2023/12/13 09:21:10;;;;;;;5.03;1.30;;;;;;;-145.69;67.45;52333.47;4939247;29;20203;-80
2023/12/13 09:23:40;;;;;;;2.50;1.00;;;;;;;-145.69;67.63;52293.88;4938604;29;20550;-80
2023/12/13 09:26:07;;;;;;;5.00;1.37;;;;;;;-145.69;66.33;52329.53;4938689;29;20737;-80
2023/12/13 09:28:35;;;;;;;1.90;1.20;;;;;;;-145.69;66.87;52315.66;4939024;29;20211;-80
2023/12/13 09:31:04;;;;;;;3.67;1.40;;;;;;;-145.69;67.15;52270.13;4938396;29;20199;-80
2023/12/13 09:33:31;;;;;;;1.50;1.37;;;;;;;-145.69;67.55;52305.75;4938849;29;20203;-80
2023/12/13 09:35:59;;;;;;;3.17;1.43;;;;;;;-145.69;67.28;52289.91;4938337;29;20195;-80
2023/12/13 09:38:26;;;;;;;3.83;1.40;;;;;;;-145.69;67.24;52323.59;4938702;29;20207;-80
2023/12/13 09:40:53;;;;;;;4.37;1.40;;;;;;;-145.69;67.13;52282.00;4938793;29;20235;-79
2023/12/13 09:43:22;;;;;;;5.93;1.47;;;;;;;-145.69;67.06;52278.03;4938260;29;20210;-80
2023/12/13 09:45:52;;;;;;;2.50;1.07;;;;;;;-145.69;67.51;52283.97;4938521;29;20238;-80
2023/12/13 09:48:24;;;;;;;4.50;1.40;;;;;;;-145.69;67.40;52272.09;4938655;29;20576;-80
2023/12/13 09:50:55;;;;;;;2.10;1.07;;;;;;;-145.69;67.70;52274.06;4938225;29;20200;-80
2023/12/13 09:53:22;;;;;;;4.97;1.60;;;;;;;-145.69;65.08;52325.56;4938593;29;20241;-80
2023/12/13 09:55:49;;;;;;;3.53;1.43;;;;;;;-145.69;66.29;52254.28;4938222;29;20204;-80
2023/12/13 09:58:18;;;;;;;2.67;1.40;;;;;;;-145.69;66.50;52305.75;4938214;29;20212;-80
2023/12/13 10:00:45;;;;;;;2.67;1.10;;;;;;;-145.69;64.00;52256.25;4936528;29;20255;-80
2023/12/13 10:03:12;;;;;;;5.27;2.80;;;;;;;-145.69;64.20;52278.03;4938208;29;20901;-80
2023/12/13 10:05:44;;;;;;;2.47;1.33;;;;;;;-145.69;64.51;52307.75;4937965;29;20210;-80
2023/12/13 10:08:15;;;;;;;3.03;0.90;;;;;;;-145.69;63.80;52282.00;4937472;29;20749;-80
2023/12/13 10:10:47;;;;;;;1.17;0.80;;;;;;;-145.69;63.25;52285.97;4938188;29;20203;-80
2023/12/13 10:13:17;;;;;;;1.63;1.07;;;;;;;-145.69;63.06;52293.88;4938082;29;20218;-80
2023/12/13 10:15:46;;;;;;;2.00;1.07;;;;;;;-145.69;64.22;52285.97;4938108;29;20195;-80
2023/12/13 10:18:16;;;;;;;2.33;1.00;;;;;;;-145.69;63.50;52309.72;4937995;29;20271;-80
2023/12/13 10:20:45;;;;;;;1.07;0.97;;;;;;;-145.69;62.56;52270.13;4938028;29;20200;-79
2023/12/13 10:23:22;;;;;;;0.90;0.90;;;;;;;-145.69;62.93;52339.44;4937068;29;20730;-80
2023/12/13 10:26:00;;;;;;;2.10;0.80;;;;;;;-145.69;62.22;52309.72;4937542;29;20553;-80
2023/12/13 10:28:32;;;;;;;1.57;0.80;;;;;;;-145.69;62.90;52256.25;4937739;29;20239;-80
2023/12/13 10:31:02;;;;;;;1.83;0.83;;;;;;;-145.69;62.88;52278.03;4937457;29;20203;-80
2023/12/13 10:33:31;;;;;;;1.40;1.03;;;;;;;-145.69;62.80;52317.66;4937980;29;20226;-79
2023/12/13 10:36:04;;;;;;;4.00;1.20;;;;;;;-145.69;63.39;52282.00;4937760;29;20204;-80
2023/12/13 10:38:39;;;;;;;1.33;1.00;;;;;;;-145.69;63.20;52317.66;4929821;29;20726;-80
2023/12/13 10:41:08;;;;;;;1.80;1.40;;;;;;;-145.69;63.33;52262.19;4918309;29;20208;-79
2023/12/13 10:43:50;;;;;;;1.57;1.33;;;;;;;-145.69;63.41;52289.91;4926779;29;20212;-80
2023/12/13 10:46:30;;;;;;;2.20;1.40;;;;;;;-145.69;63.39;52299.81;4937172;29;20216;-79
2023/12/13 10:49:06;;;;;;;3.50;1.33;;;;;;;-145.69;63.78;52228.53;4936404;29;20231;-79
2023/12/13 10:51:38;;;;;;;2.27;1.67;;;;;;;-145.69;63.46;52272.09;4937331;29;20234;-79
2023/12/13 10:54:08;;;;;;;2.13;1.30;;;;;;;-145.69;63.96;52297.84;4936998;29;20223;-79
2023/12/13 10:56:35;;;;;;;2.67;1.47;;;;;;;-145.69;63.40;52301.81;4935909;29;20208;-79
2023/12/13 10:59:11;;;;;;;2.97;1.90;;;;;;;-145.69;63.22;52272.09;4936740;29;20290;-79
2023/12/13 11:01:41;;;;;;;4.47;2.00;;;;;;;-145.69;62.94;52260.22;4936697;29;20233;-78
2023/12/13 11:04:25;;;;;;;1.80;1.43;;;;;;;-145.69;62.89;52266.16;4931196;29;20197;-78
2023/12/13 11:07:06;;;;;;;3.60;2.00;;;;;;;-145.69;63.54;52244.38;4917614;29;20544;-79
2023/12/13 11:09:32;;;;;;;2.00;1.67;;;;;;;-145.69;63.61;52301.81;4934264;29;20314;-78
2023/12/13 11:12:18;;;;;;;2.47;1.53;;;;;;;-145.69;63.96;52270.13;4936706;29;20259;-78
2023/12/13 11:14:48;;;;;;;3.30;1.70;;;;;;;-145.69;64.48;52258.22;4918173;29;20259;-78
2023/12/13 11:20:09;;;;;;;1.73;1.47;;;;;;;-145.69;63.89;52278.03;4931773;29;20583;-78
2023/12/13 11:22:43;;;;;;;3.70;2.00;;;;;;;-145.69;63.56;52270.13;4936552;29;20203;-80